Time;durP1;ratioP1;P1;durP2;ratioP2;P2;SDS_P1;SDS_P2;PMS_P1;PMS_P2;Temp;Humidity;BMP_temperature;BMP_pressure;BME280_temperature;BME280_humidity;BME280_pressure;Samples;Min_cycle;Max_cycle;Signal;HPM_P1;HPM_P2
2021/06/19 00:02:24;;;;;;;5.15;4.65;;;26.10;57.50;;;;;;4962395;28;20048;-77
2021/06/19 00:04:50;;;;;;;4.68;4.35;;;26.10;57.70;;;;;;4960193;28;20042;-76
2021/06/19 00:07:15;;;;;;;6.55;4.63;;;26.10;57.30;;;;;;4958342;28;20039;-76
2021/06/19 00:09:41;;;;;;;5.47;4.57;;;26.10;57.70;;;;;;4959202;28;20031;-76
2021/06/19 00:12:07;;;;;;;6.20;5.53;;;26.10;57.80;;;;;;4959482;28;20042;-76
2021/06/19 00:14:33;;;;;;;7.90;4.78;;;26.10;57.60;;;;;;4961614;28;20027;-76
2021/06/19 00:16:59;;;;;;;5.05;4.53;;;26.10;57.10;;;;;;4959955;28;20323;-76
2021/06/19 00:19:24;;;;;;;5.15;4.63;;;26.10;56.90;;;;;;4958676;28;20031;-70
2021/06/19 00:21:50;;;;;;;5.93;5.00;;;26.10;56.90;;;;;;4960892;28;20031;-70
2021/06/19 00:24:24;;;;;;;6.10;4.82;;;26.00;56.70;;;;;;4960161;28;20037;-70
2021/06/19 00:26:51;;;;;;;6.28;4.88;;;26.00;57.00;;;;;;4961105;28;20367;-70
2021/06/19 00:29:17;;;;;;;4.40;4.10;;;25.90;56.80;;;;;;4958952;28;20031;-71
2021/06/19 00:31:44;;;;;;;8.68;5.72;;;25.90;56.80;;;;;;4959576;28;20482;-70
2021/06/19 00:34:11;;;;;;;7.18;5.35;;;25.80;57.10;;;;;;4961050;28;20485;-71
2021/06/19 00:36:37;;;;;;;6.05;5.50;;;25.80;56.90;;;;;;4959534;28;20031;-70
2021/06/19 00:39:04;;;;;;;5.78;5.20;;;25.80;56.80;;;;;;4958679;28;20022;-70
2021/06/19 00:41:30;;;;;;;4.88;4.15;;;25.80;56.80;;;;;;4961874;28;20450;-70
2021/06/19 00:43:55;;;;;;;5.63;4.10;;;25.70;56.90;;;;;;4960823;28;20106;-70
2021/06/19 00:46:21;;;;;;;5.72;4.47;;;25.60;57.10;;;;;;4959849;28;20039;-70
2021/06/19 00:48:46;;;;;;;5.47;5.00;;;25.60;57.30;;;;;;4960127;28;20051;-70
2021/06/19 00:51:12;;;;;;;5.28;4.78;;;25.60;57.40;;;;;;4960806;28;20533;-70
2021/06/19 00:53:37;;;;;;;4.75;4.28;;;25.60;57.30;;;;;;4957953;28;20116;-70
2021/06/19 00:56:03;;;;;;;5.38;4.90;;;25.60;57.60;;;;;;4959275;28;20582;-70
2021/06/19 00:58:32;;;;;;;4.80;4.30;;;25.60;57.80;;;;;;4959968;28;20039;-70
2021/06/19 01:00:57;;;;;;;6.15;4.65;;;25.60;57.50;;;;;;4960344;28;20077;-70
2021/06/19 01:03:23;;;;;;;4.90;4.22;;;25.60;57.60;;;;;;4966569;28;20465;-70
2021/06/19 01:05:50;;;;;;;6.55;4.57;;;25.60;57.70;;;;;;4959439;28;20393;-70
2021/06/19 01:08:16;;;;;;;5.15;4.28;;;25.60;57.60;;;;;;4956042;28;20041;-70
2021/06/19 01:10:42;;;;;;;6.95;4.10;;;25.60;57.60;;;;;;4959490;28;20027;-70
2021/06/19 01:13:07;;;;;;;4.80;4.40;;;25.60;57.60;;;;;;4960501;28;20058;-70
2021/06/19 01:15:33;;;;;;;6.68;5.07;;;25.50;57.40;;;;;;4959949;28;20055;-70
2021/06/19 01:17:58;;;;;;;9.25;5.15;;;25.40;57.20;;;;;;4959364;28;20027;-70
2021/06/19 01:20:25;;;;;;;5.18;3.70;;;25.40;57.40;;;;;;4960195;28;20031;-70
2021/06/19 01:22:53;;;;;;;5.15;4.20;;;25.40;57.60;;;;;;4965618;28;20450;-70
2021/06/19 01:25:29;;;;;;;6.43;5.00;;;25.40;57.50;;;;;;4957970;28;20481;-70
2021/06/19 01:27:56;;;;;;;4.15;3.85;;;25.40;57.70;;;;;;4959259;28;20031;-70
2021/06/19 01:30:24;;;;;;;5.40;4.38;;;25.30;57.80;;;;;;4959485;28;20090;-70
2021/06/19 01:32:51;;;;;;;4.60;4.05;;;25.30;57.50;;;;;;4959278;28;20063;-70
2021/06/19 01:35:17;;;;;;;8.07;5.13;;;25.30;57.90;;;;;;4960085;28;20450;-70
2021/06/19 01:37:50;;;;;;;5.47;4.43;;;25.30;58.40;;;;;;4960389;28;20561;-70
2021/06/19 01:40:19;;;;;;;7.45;5.20;;;25.20;58.30;;;;;;4957041;28;20521;-70
2021/06/19 01:42:47;;;;;;;8.93;5.00;;;25.20;58.50;;;;;;4960131;28;20038;-70
2021/06/19 01:45:17;;;;;;;5.38;4.88;;;25.20;58.60;;;;;;4959442;28;20119;-70
2021/06/19 01:47:43;;;;;;;6.60;4.90;;;25.20;58.50;;;;;;4959938;28;20035;-70
2021/06/19 01:50:10;;;;;;;8.43;5.03;;;25.20;58.80;;;;;;4959601;28;20038;-70
2021/06/19 01:52:36;;;;;;;8.13;4.47;;;25.10;58.60;;;;;;4959330;28;20055;-70
2021/06/19 01:55:03;;;;;;;11.10;6.28;;;25.10;58.80;;;;;;4963092;28;20031;-70
2021/06/19 01:57:29;;;;;;;7.78;4.70;;;25.00;58.60;;;;;;4958506;28;20037;-70
2021/06/19 02:00:08;;;;;;;5.18;4.68;;;25.00;58.70;;;;;;4958610;28;20030;-70
2021/06/19 02:02:33;;;;;;;5.35;4.90;;;25.00;59.30;;;;;;4958778;28;20027;-70
2021/06/19 02:04:59;;;;;;;5.47;5.03;;;25.00;59.50;;;;;;4968059;28;20039;-70
2021/06/19 02:07:25;;;;;;;4.55;4.15;;;25.00;59.30;;;;;;4962203;28;20035;-71
2021/06/19 02:09:50;;;;;;;9.65;5.40;;;25.00;59.70;;;;;;4961572;28;20039;-71
2021/06/19 02:12:17;;;;;;;5.47;5.05;;;24.90;59.80;;;;;;4961779;28;20107;-71
2021/06/19 02:14:44;;;;;;;7.97;5.80;;;24.90;60.30;;;;;;4962739;28;20085;-71
2021/06/19 02:17:09;;;;;;;6.65;6.05;;;24.90;60.50;;;;;;4962420;28;20037;-71
2021/06/19 02:19:35;;;;;;;8.57;6.13;;;24.80;61.00;;;;;;4961862;28;20031;-71
2021/06/19 02:22:01;;;;;;;8.25;6.18;;;24.70;60.60;;;;;;4962793;28;20509;-71
2021/06/19 02:24:26;;;;;;;10.32;7.97;;;24.70;60.50;;;;;;4963492;28;20035;-70
2021/06/19 02:27:10;;;;;;;10.13;8.63;;;24.70;60.10;;;;;;4962345;28;20546;-70
2021/06/19 02:29:35;;;;;;;11.32;7.28;;;24.60;60.40;;;;;;4967177;28;20109;-71
2021/06/19 02:32:02;;;;;;;8.27;7.15;;;24.50;60.40;;;;;;4963997;28;20077;-71
2021/06/19 02:34:27;;;;;;;11.00;8.75;;;24.50;60.00;;;;;;4962647;28;20031;-71
2021/06/19 02:36:53;;;;;;;9.40;8.50;;;24.50;60.60;;;;;;4962632;28;20045;-71
2021/06/19 02:39:19;;;;;;;11.20;8.48;;;24.60;60.20;;;;;;4962848;28;20027;-71
2021/06/19 02:41:44;;;;;;;7.15;6.53;;;24.50;60.00;;;;;;4962367;28;20066;-70
2021/06/19 02:44:10;;;;;;;10.52;8.23;;;24.50;60.50;;;;;;4962387;28;20027;-71
2021/06/19 02:46:35;;;;;;;10.40;8.35;;;24.40;60.10;;;;;;4961563;28;20384;-71
2021/06/19 02:49:01;;;;;;;10.05;5.90;;;24.50;60.10;;;;;;4961224;28;20039;-71
2021/06/19 02:51:26;;;;;;;6.93;6.03;;;24.50;60.30;;;;;;4963226;28;20259;-71
2021/06/19 02:53:52;;;;;;;10.10;8.90;;;24.40;60.50;;;;;;4961827;28;20037;-70
2021/06/19 02:56:17;;;;;;;9.82;7.57;;;24.40;60.50;;;;;;4962516;28;20093;-71
2021/06/19 02:58:43;;;;;;;9.68;7.43;;;24.40;60.50;;;;;;4960368;28;20497;-70
2021/06/19 03:01:08;;;;;;;15.50;14.02;;;24.40;60.80;;;;;;4967570;28;20069;-70
2021/06/19 03:03:34;;;;;;;11.73;10.55;;;24.40;60.20;;;;;;4960204;28;20031;-70
2021/06/19 03:06:01;;;;;;;22.63;20.20;;;24.50;60.80;;;;;;4963150;28;20031;-71
2021/06/19 03:08:31;;;;;;;18.17;12.63;;;24.50;60.50;;;;;;4960394;28;20097;-71
2021/06/19 03:10:56;;;;;;;11.63;10.07;;;24.60;60.70;;;;;;4961745;28;20507;-71
2021/06/19 03:13:22;;;;;;;17.00;14.43;;;24.70;60.60;;;;;;4962331;28;20034;-71
2021/06/19 03:15:47;;;;;;;7.55;6.85;;;24.70;60.40;;;;;;4961490;28;20417;-70
2021/06/19 03:18:13;;;;;;;7.68;6.72;;;24.80;61.00;;;;;;4956654;28;20067;-71
2021/06/19 03:20:39;;;;;;;11.48;8.18;;;24.80;60.90;;;;;;4961495;28;20422;-71
2021/06/19 03:23:06;;;;;;;7.50;6.80;;;24.80;60.90;;;;;;4960599;28;20035;-71
2021/06/19 03:25:38;;;;;;;8.80;6.85;;;24.80;61.10;;;;;;4962837;28;20062;-71
2021/06/19 03:28:05;;;;;;;10.00;7.20;;;24.70;61.10;;;;;;4959286;28;20487;-71
2021/06/19 03:30:33;;;;;;;8.73;6.65;;;24.70;61.70;;;;;;4962475;28;20069;-71
2021/06/19 03:32:58;;;;;;;12.15;7.68;;;24.70;62.50;;;;;;4961189;28;20095;-71
2021/06/19 03:35:24;;;;;;;11.15;9.13;;;24.70;61.60;;;;;;4962104;28;20023;-70
2021/06/19 03:37:51;;;;;;;11.75;8.40;;;24.80;61.70;;;;;;4958014;28;20150;-70
2021/06/19 03:40:18;;;;;;;9.95;7.22;;;24.80;62.00;;;;;;4960829;28;20027;-71
2021/06/19 03:42:45;;;;;;;8.52;7.15;;;24.90;62.00;;;;;;4961871;28;20387;-71
2021/06/19 03:45:12;;;;;;;10.32;7.53;;;25.00;61.80;;;;;;4961245;28;20458;-71
2021/06/19 03:47:39;;;;;;;10.02;6.88;;;25.10;62.00;;;;;;4960989;28;20042;-71
2021/06/19 03:50:10;;;;;;;7.55;6.85;;;25.30;62.50;;;;;;4960174;28;20030;-71
2021/06/19 03:52:35;;;;;;;8.55;7.75;;;25.40;62.00;;;;;;4962045;28;20089;-71
2021/06/19 03:55:01;;;;;;;9.82;7.80;;;25.60;61.70;;;;;;4959466;28;20027;-71
2021/06/19 03:57:31;;;;;;;7.57;6.60;;;25.80;61.50;;;;;;4960071;28;20042;-71
2021/06/19 03:59:56;;;;;;;12.10;6.78;;;26.00;61.50;;;;;;4961227;28;20106;-71
2021/06/19 04:02:23;;;;;;;7.82;6.53;;;26.10;61.30;;;;;;4960984;28;20146;-70
2021/06/19 04:04:49;;;;;;;12.23;6.88;;;26.30;61.10;;;;;;4961052;28;20038;-71
2021/06/19 04:07:15;;;;;;;11.80;7.22;;;26.40;61.10;;;;;;4961119;28;20038;-71
2021/06/19 04:09:41;;;;;;;8.02;7.30;;;26.60;60.80;;;;;;4960198;28;20110;-71
2021/06/19 04:12:07;;;;;;;10.30;6.85;;;26.70;60.60;;;;;;4959665;28;20118;-71
2021/06/19 04:14:33;;;;;;;10.20;8.15;;;26.80;60.50;;;;;;4960208;28;20023;-71
2021/06/19 04:16:59;;;;;;;9.48;7.00;;;26.80;60.50;;;;;;4960803;28;20455;-71
2021/06/19 04:19:24;;;;;;;10.05;7.50;;;26.80;60.40;;;;;;4960860;28;20049;-71
2021/06/19 04:21:50;;;;;;;8.95;7.07;;;27.00;60.20;;;;;;4960594;28;20039;-71
2021/06/19 04:24:16;;;;;;;8.25;7.38;;;27.20;60.00;;;;;;4962167;28;20023;-71
2021/06/19 04:26:42;;;;;;;9.43;6.88;;;27.40;59.80;;;;;;4959852;28;20035;-71
2021/06/19 04:29:07;;;;;;;8.00;7.30;;;27.50;59.50;;;;;;4959197;28;20031;-71
2021/06/19 04:31:33;;;;;;;9.43;6.90;;;27.70;59.50;;;;;;4960082;28;20607;-71
2021/06/19 04:33:59;;;;;;;8.32;7.05;;;27.90;59.30;;;;;;4960782;28;20027;-71
2021/06/19 04:36:28;;;;;;;9.38;8.07;;;28.00;58.80;;;;;;4959690;28;20431;-71
2021/06/19 04:38:54;;;;;;;16.27;10.45;;;28.10;58.80;;;;;;4958400;28;20027;-71
2021/06/19 04:46:14;;;;;;;9.85;7.95;;;28.30;58.10;;;;;;4958879;28;20035;-72
2021/06/19 04:48:39;;;;;;;9.27;8.15;;;28.40;58.00;;;;;;4958758;28;20418;-71
2021/06/19 04:51:05;;;;;;;10.20;8.35;;;28.60;57.70;;;;;;4959825;28;20027;-71
2021/06/19 04:53:31;;;;;;;13.07;8.32;;;28.70;57.40;;;;;;4961342;28;20371;-71
2021/06/19 04:55:56;;;;;;;9.43;8.10;;;28.90;57.20;;;;;;4960264;28;20031;-71
2021/06/19 04:58:24;;;;;;;12.88;9.57;;;29.10;57.10;;;;;;4958896;28;20038;-71
2021/06/19 05:00:49;;;;;;;21.23;16.52;;;29.30;56.80;;;;;;4960210;28;20083;-71
2021/06/19 05:03:18;;;;;;;16.33;10.57;;;29.40;56.40;;;;;;4959122;28;20499;-69
2021/06/19 05:05:43;;;;;;;12.40;9.45;;;29.20;56.20;;;;;;4960922;28;20027;-70
2021/06/19 05:08:09;;;;;;;7.82;6.93;;;29.10;56.90;;;;;;4958722;28;20035;-70
2021/06/19 05:10:35;;;;;;;13.15;8.10;;;29.00;57.00;;;;;;4958971;28;20053;-69
2021/06/19 05:13:00;;;;;;;12.05;6.65;;;29.30;57.00;;;;;;4960680;28;20063;-69
2021/06/19 05:15:26;;;;;;;11.02;6.45;;;29.70;56.50;;;;;;4966615;28;20069;-70
2021/06/19 05:17:53;;;;;;;11.02;9.25;;;30.00;56.00;;;;;;4960696;28;20611;-70
2021/06/19 05:20:19;;;;;;;8.00;6.97;;;30.30;55.50;;;;;;4958667;28;20045;-70
2021/06/19 05:22:44;;;;;;;8.80;7.25;;;30.70;55.00;;;;;;4959640;28;20031;-70
2021/06/19 05:25:12;;;;;;;8.23;6.78;;;30.90;54.30;;;;;;4973910;28;20083;-70
2021/06/19 05:27:38;;;;;;;9.50;7.68;;;31.10;54.00;;;;;;4959342;28;20043;-69
2021/06/19 05:30:04;;;;;;;12.02;6.93;;;31.40;53.30;;;;;;4959911;28;20030;-69
2021/06/19 05:32:30;;;;;;;14.27;7.28;;;31.60;53.20;;;;;;4959789;28;20034;-69
2021/06/19 05:34:55;;;;;;;11.13;6.43;;;31.80;52.60;;;;;;4960609;28;20043;-70
2021/06/19 05:37:21;;;;;;;9.88;7.43;;;31.80;52.40;;;;;;4961733;28;20031;-70
2021/06/19 05:39:46;;;;;;;13.52;6.80;;;31.90;52.80;;;;;;4968346;28;20030;-69
2021/06/19 05:42:12;;;;;;;10.70;6.15;;;31.80;52.70;;;;;;4962542;28;20027;-69
2021/06/19 05:44:38;;;;;;;10.30;7.30;;;31.70;52.90;;;;;;4963665;28;20533;-70
2021/06/19 05:47:03;;;;;;;8.60;7.13;;;31.60;53.10;;;;;;4963041;28;20023;-69
2021/06/19 05:49:29;;;;;;;9.13;7.85;;;31.40;53.30;;;;;;4963876;28;20443;-69
2021/06/19 05:51:54;;;;;;;9.45;7.40;;;31.20;53.90;;;;;;4963244;28;20038;-69
2021/06/19 05:54:20;;;;;;;12.73;7.25;;;31.10;54.20;;;;;;4961875;28;20035;-69
2021/06/19 05:56:45;;;;;;;14.80;7.63;;;30.90;54.20;;;;;;4962612;28;20038;-71
2021/06/19 05:59:11;;;;;;;7.30;6.55;;;30.80;54.80;;;;;;4963547;28;20026;-72
2021/06/19 06:01:36;;;;;;;10.43;7.45;;;30.60;55.10;;;;;;4969151;28;20114;-71
2021/06/19 06:04:02;;;;;;;11.95;7.53;;;30.60;55.50;;;;;;4963351;28;20023;-71
2021/06/19 06:06:27;;;;;;;14.10;7.85;;;30.50;55.70;;;;;;4961242;28;20037;-72
2021/06/19 06:08:53;;;;;;;13.90;6.80;;;30.40;55.80;;;;;;4961340;28;21065;-72
2021/06/19 06:11:18;;;;;;;13.65;7.88;;;30.40;56.10;;;;;;4959957;28;20062;-70
2021/06/19 06:13:44;;;;;;;13.63;8.20;;;30.30;55.60;;;;;;4959955;28;20035;-70
2021/06/19 06:16:10;;;;;;;13.27;6.60;;;30.30;55.90;;;;;;4964463;28;20023;-70
2021/06/19 06:18:36;;;;;;;13.98;6.80;;;30.40;56.10;;;;;;4960497;28;20086;-71
2021/06/19 06:21:03;;;;;;;11.90;6.38;;;30.40;56.00;;;;;;4962451;28;20409;-73
2021/06/19 06:23:28;;;;;;;11.13;5.95;;;30.20;55.70;;;;;;4964051;28;20023;-74
2021/06/19 06:25:54;;;;;;;15.52;6.20;;;29.80;56.40;;;;;;4963246;28;20544;-73
2021/06/19 06:28:20;;;;;;;11.38;5.65;;;29.50;56.90;;;;;;4959722;28;20039;-73
2021/06/19 06:30:46;;;;;;;11.38;7.20;;;29.40;57.50;;;;;;4963190;28;20027;-73
2021/06/19 06:33:12;;;;;;;9.80;5.90;;;29.20;57.10;;;;;;4960990;28;20233;-73
2021/06/19 06:35:38;;;;;;;11.07;5.72;;;28.90;57.70;;;;;;4962970;28;20038;-73
2021/06/19 06:38:04;;;;;;;10.73;6.32;;;28.70;58.90;;;;;;4960342;28;20129;-74
2021/06/19 06:40:30;;;;;;;11.93;5.35;;;28.60;59.20;;;;;;4962753;28;20130;-74
2021/06/19 06:42:58;;;;;;;8.45;5.95;;;28.50;59.40;;;;;;4963602;28;20037;-74
2021/06/19 06:45:23;;;;;;;12.50;5.90;;;28.50;59.30;;;;;;4964737;28;20030;-73
2021/06/19 06:47:50;;;;;;;10.75;5.50;;;28.50;59.70;;;;;;4962668;28;20035;-73
2021/06/19 06:50:16;;;;;;;7.97;6.03;;;28.60;59.30;;;;;;4968744;28;20031;-74
2021/06/19 06:52:41;;;;;;;6.68;5.32;;;28.70;59.10;;;;;;4961682;28;20038;-73
2021/06/19 06:55:08;;;;;;;12.30;4.85;;;28.80;58.70;;;;;;4963945;28;20057;-74
2021/06/19 06:57:34;;;;;;;6.95;4.35;;;28.90;58.40;;;;;;4961774;28;20067;-74
2021/06/19 07:00:00;;;;;;;7.80;4.55;;;28.70;58.60;;;;;;4961221;28;20035;-74
2021/06/19 07:02:25;;;;;;;10.02;4.25;;;28.40;59.40;;;;;;4960155;28;20039;-73
2021/06/19 07:04:51;;;;;;;9.35;4.80;;;28.10;59.80;;;;;;4964000;28;20031;-72
2021/06/19 07:07:17;;;;;;;8.93;4.57;;;27.90;60.00;;;;;;4960923;28;20275;-73
2021/06/19 07:09:43;;;;;;;11.23;4.82;;;28.00;60.50;;;;;;4959492;28;20113;-73
2021/06/19 07:12:09;;;;;;;7.55;4.85;;;28.00;60.40;;;;;;4962105;28;20034;-73
2021/06/19 07:14:35;;;;;;;6.95;3.80;;;28.10;60.00;;;;;;4961526;28;20047;-73
2021/06/19 07:17:01;;;;;;;7.97;4.18;;;28.20;59.90;;;;;;4968177;28;20015;-75
2021/06/19 07:19:26;;;;;;;8.35;4.38;;;28.30;60.10;;;;;;4955903;28;20070;-74
2021/06/19 07:21:52;;;;;;;18.73;5.18;;;28.40;59.80;;;;;;4960224;28;20031;-74
2021/06/19 07:24:18;;;;;;;7.25;4.47;;;28.50;59.80;;;;;;4961522;28;20102;-75
2021/06/19 07:26:43;;;;;;;5.65;4.40;;;28.40;59.30;;;;;;4961683;28;20107;-75
2021/06/19 07:29:09;;;;;;;17.65;8.90;;;28.30;60.00;;;;;;4961419;28;20344;-75
2021/06/19 07:31:35;;;;;;;14.05;7.78;;;28.40;60.20;;;;;;4962858;28;20496;-77
2021/06/19 07:34:00;;;;;;;16.20;6.90;;;28.60;60.00;;;;;;4967840;28;20046;-77
2021/06/19 07:36:26;;;;;;;7.53;5.05;;;28.80;58.90;;;;;;4963489;28;20023;-77
2021/06/19 07:38:51;;;;;;;12.23;4.70;;;28.90;59.30;;;;;;4961313;28;20379;-76
2021/06/19 07:41:17;;;;;;;10.15;6.95;;;29.10;58.90;;;;;;4961513;28;20546;-77
2021/06/19 07:43:43;;;;;;;8.00;5.20;;;29.20;58.90;;;;;;4960047;28;20109;-77
2021/06/19 07:46:09;;;;;;;9.02;6.38;;;29.40;58.90;;;;;;4962181;28;20018;-76
2021/06/19 07:48:35;;;;;;;11.77;5.43;;;29.60;58.60;;;;;;4959750;28;20033;-76
2021/06/19 07:51:00;;;;;;;17.30;5.68;;;29.70;58.60;;;;;;4959033;28;20059;-77
2021/06/19 07:53:26;;;;;;;15.18;5.72;;;29.70;58.60;;;;;;4958770;28;20100;-76
2021/06/19 07:55:51;;;;;;;18.25;6.30;;;29.60;58.50;;;;;;4968104;28;20034;-75
2021/06/19 07:58:17;;;;;;;13.15;6.20;;;29.60;58.10;;;;;;4960182;28;20055;-76
2021/06/19 08:00:43;;;;;;;17.80;6.18;;;29.50;58.80;;;;;;4960086;28;20031;-76
2021/06/19 08:03:09;;;;;;;9.98;4.55;;;29.60;58.60;;;;;;4960436;28;20027;-72
2021/06/19 08:05:34;;;;;;;7.28;5.00;;;29.70;57.50;;;;;;4959633;28;20035;-71
2021/06/19 08:08:00;;;;;;;14.18;3.97;;;29.80;57.90;;;;;;4956385;28;20383;-72
2021/06/19 08:10:26;;;;;;;7.53;4.95;;;29.80;57.30;;;;;;4960612;28;20023;-72
2021/06/19 08:12:52;;;;;;;11.70;3.92;;;30.00;57.50;;;;;;4967039;28;20023;-72
2021/06/19 08:15:20;;;;;;;7.70;4.88;;;30.00;57.00;;;;;;4960584;28;20034;-74
2021/06/19 08:17:45;;;;;;;6.25;4.28;;;30.10;57.20;;;;;;4959077;28;20102;-73
2021/06/19 08:20:12;;;;;;;7.03;4.53;;;30.10;57.40;;;;;;4959392;28;20683;-74
2021/06/19 08:22:37;;;;;;;7.82;4.47;;;30.10;57.30;;;;;;4960194;28;20023;-73
2021/06/19 08:25:04;;;;;;;6.38;3.83;;;30.00;56.80;;;;;;4961455;28;20031;-72
2021/06/19 08:27:30;;;;;;;8.80;4.43;;;30.00;56.60;;;;;;4960579;28;20045;-72
2021/06/19 08:29:56;;;;;;;5.97;3.83;;;30.00;57.00;;;;;;4958527;28;20035;-72
2021/06/19 08:32:22;;;;;;;7.68;4.10;;;30.20;56.50;;;;;;4959342;28;20788;-73
2021/06/19 08:34:51;;;;;;;7.53;3.42;;;30.40;56.30;;;;;;4960001;28;20016;-73
2021/06/19 08:37:17;;;;;;;5.28;4.43;;;30.50;56.00;;;;;;4959362;28;20023;-73
2021/06/19 08:39:43;;;;;;;6.25;3.70;;;30.60;56.60;;;;;;4962010;28;20032;-74
2021/06/19 08:42:08;;;;;;;7.70;4.50;;;30.80;55.60;;;;;;4963781;28;20033;-73
2021/06/19 08:44:41;;;;;;;4.53;4.03;;;30.90;55.80;;;;;;4958882;28;20046;-73
2021/06/19 08:47:07;;;;;;;10.02;3.92;;;31.10;55.60;;;;;;4963793;28;20490;-72
2021/06/19 08:49:34;;;;;;;5.60;4.10;;;31.30;55.50;;;;;;4965150;28;20121;-72
2021/06/19 08:52:00;;;;;;;10.15;4.97;;;31.30;55.00;;;;;;4959630;28;20119;-73
2021/06/19 08:54:27;;;;;;;5.10;3.33;;;31.20;54.50;;;;;;4959713;28;20100;-74
2021/06/19 08:56:53;;;;;;;8.77;4.50;;;31.20;54.80;;;;;;4960402;28;20544;-73
2021/06/19 08:59:18;;;;;;;8.70;5.53;;;31.30;54.90;;;;;;4959921;28;20058;-73
2021/06/19 09:01:45;;;;;;;5.35;3.85;;;31.40;54.20;;;;;;4959188;28;20027;-74
2021/06/19 09:04:11;;;;;;;10.85;3.42;;;31.20;54.10;;;;;;4960765;28;20054;-74
2021/06/19 09:06:39;;;;;;;9.07;4.22;;;30.80;54.80;;;;;;4960068;28;20022;-73
2021/06/19 09:09:13;;;;;;;15.82;5.05;;;31.10;55.20;;;;;;4958729;28;20641;-74
2021/06/19 09:11:45;;;;;;;22.77;5.30;;;31.20;54.90;;;;;;4959653;28;20030;-74
2021/06/19 09:14:16;;;;;;;15.65;4.60;;;31.30;54.30;;;;;;4960595;28;20047;-74
2021/06/19 09:16:44;;;;;;;9.75;4.70;;;31.30;54.70;;;;;;4960666;28;20023;-73
2021/06/19 09:19:23;;;;;;;14.23;4.40;;;31.40;54.30;;;;;;4959009;28;20058;-74
2021/06/19 09:22:07;;;;;;;17.52;4.18;;;31.40;54.50;;;;;;4959907;28;20033;-73
2021/06/19 09:24:53;;;;;;;24.38;5.88;;;31.40;54.30;;;;;;4961528;28;20457;-73
2021/06/19 09:27:32;;;;;;;10.00;4.22;;;31.50;54.50;;;;;;4959867;28;20042;-74
2021/06/19 09:30:15;;;;;;;19.63;4.43;;;31.50;54.10;;;;;;4960098;28;20055;-73
2021/06/19 09:32:55;;;;;;;6.60;3.65;;;31.50;54.30;;;;;;4960766;28;20031;-73
2021/06/19 09:35:32;;;;;;;13.90;4.28;;;31.40;54.50;;;;;;4960867;28;20018;-73
2021/06/19 09:38:05;;;;;;;10.43;4.72;;;31.20;54.50;;;;;;4960630;28;20109;-73
2021/06/19 09:40:42;;;;;;;11.70;3.95;;;31.10;55.30;;;;;;4956244;28;20046;-73
2021/06/19 09:43:11;;;;;;;7.53;3.90;;;31.10;55.00;;;;;;4959454;28;20693;-73
2021/06/19 09:45:37;;;;;;;5.93;4.85;;;31.10;55.20;;;;;;4958447;28;20070;-73
2021/06/19 09:48:04;;;;;;;10.90;4.70;;;31.10;55.10;;;;;;4959354;28;20062;-73
2021/06/19 09:50:30;;;;;;;14.32;5.00;;;31.00;55.30;;;;;;4960350;28;20031;-73
2021/06/19 09:52:56;;;;;;;18.73;4.65;;;31.00;55.50;;;;;;4960572;28;20402;-73
2021/06/19 09:55:21;;;;;;;6.30;4.15;;;31.20;55.30;;;;;;4960529;28;20106;-74
2021/06/19 09:57:48;;;;;;;7.47;3.60;;;31.30;55.20;;;;;;4958986;28;20368;-74
2021/06/19 10:00:19;;;;;;;9.60;4.07;;;31.20;55.10;;;;;;4959154;28;20559;-74
2021/06/19 10:02:45;;;;;;;10.05;4.15;;;31.20;55.40;;;;;;4960616;28;20560;-74
2021/06/19 10:05:12;;;;;;;4.38;3.40;;;31.10;55.00;;;;;;4960076;28;20134;-73
2021/06/19 10:07:38;;;;;;;6.45;4.40;;;30.80;55.70;;;;;;4960088;28;20046;-73
2021/06/19 10:10:09;;;;;;;13.23;4.00;;;30.80;56.10;;;;;;4960236;28;20035;-73
2021/06/19 10:12:37;;;;;;;7.32;3.88;;;30.90;55.80;;;;;;4959933;28;20032;-73
2021/06/19 10:15:05;;;;;;;11.20;3.97;;;31.20;55.00;;;;;;4959763;28;20022;-74
2021/06/19 10:17:35;;;;;;;11.40;3.45;;;31.50;54.20;;;;;;4960724;28;20026;-73
2021/06/19 10:20:02;;;;;;;14.65;4.18;;;31.80;54.10;;;;;;4959413;28;20046;-74
2021/06/19 10:22:29;;;;;;;9.10;3.90;;;32.00;53.30;;;;;;4960183;28;20043;-74
2021/06/19 10:24:56;;;;;;;8.88;3.35;;;32.10;52.40;;;;;;4962911;28;20031;-74
2021/06/19 10:27:23;;;;;;;20.67;3.83;;;32.20;53.00;;;;;;4963166;28;20063;-73
2021/06/19 10:29:51;;;;;;;11.75;3.45;;;32.40;52.10;;;;;;4962396;28;20062;-74
2021/06/19 10:32:49;;;;;;;4.75;2.88;;;32.50;52.30;;;;;;4962062;28;20118;-73
2021/06/19 10:35:51;;;;;;;14.82;3.63;;;32.60;50.20;;;;;;4963511;28;20534;-74
2021/06/19 10:38:18;;;;;;;14.32;3.58;;;32.30;50.40;;;;;;4962101;28;20042;-73
2021/06/19 10:40:56;;;;;;;17.05;3.53;;;32.00;51.40;;;;;;4963074;28;20027;-74
2021/06/19 10:43:22;;;;;;;3.10;2.78;;;31.90;50.80;;;;;;4962134;28;20047;-74
2021/06/19 10:45:49;;;;;;;2.83;2.10;;;31.70;50.80;;;;;;4963522;28;20035;-74
2021/06/19 10:48:35;;;;;;;5.63;3.30;;;31.40;50.90;;;;;;4962561;28;20031;-74
2021/06/19 10:51:32;;;;;;;5.65;2.95;;;31.10;51.10;;;;;;4963335;28;20031;-74
2021/06/19 10:54:08;;;;;;;5.70;2.53;;;31.10;52.40;;;;;;4946718;28;20086;-73
2021/06/19 10:56:57;;;;;;;6.88;2.65;;;31.40;51.60;;;;;;4961596;28;20035;-73
2021/06/19 10:59:29;;;;;;;4.70;2.33;;;31.70;51.50;;;;;;4961164;28;20035;-73
2021/06/19 11:02:01;;;;;;;4.63;2.03;;;32.10;51.30;;;;;;4969551;28;20046;-73
2021/06/19 11:04:36;;;;;;;15.13;2.65;;;32.40;50.70;;;;;;4963702;28;20073;-74
2021/06/19 11:07:03;;;;;;;4.38;1.95;;;32.60;50.00;;;;;;4962587;28;20051;-73
2021/06/19 11:09:37;;;;;;;4.05;1.80;;;32.80;49.90;;;;;;4968117;28;20054;-74
2021/06/19 11:12:04;;;;;;;7.57;2.03;;;32.80;46.90;;;;;;4961601;28;20106;-74
2021/06/19 11:14:42;;;;;;;4.10;1.92;;;32.70;48.40;;;;;;4963079;28;20102;-73
2021/06/19 11:17:07;;;;;;;2.67;2.20;;;32.70;47.80;;;;;;4960770;28;20635;-74
2021/06/19 11:19:40;;;;;;;6.50;1.75;;;32.60;48.00;;;;;;4968292;28;20035;-73
2021/06/19 11:22:41;;;;;;;7.40;2.00;;;32.60;47.90;;;;;;4962430;28;20031;-74
2021/06/19 11:25:26;;;;;;;5.63;1.70;;;32.80;48.50;;;;;;4962048;28;20063;-73
2021/06/19 11:28:00;;;;;;;2.10;1.35;;;33.20;48.40;;;;;;4964660;28;20039;-74
2021/06/19 11:30:38;;;;;;;8.07;2.03;;;33.30;47.20;;;;;;4944723;28;20085;-79
2021/06/19 11:33:21;;;;;;;2.75;1.50;;;33.40;46.50;;;;;;4949669;28;20063;-74
2021/06/19 11:35:50;;;;;;;3.95;1.75;;;33.10;45.90;;;;;;4948339;28;20055;-72
2021/06/19 11:38:17;;;;;;;9.07;1.90;;;32.70;46.30;;;;;;4956394;28;20525;-75
2021/06/19 11:40:44;;;;;;;3.45;1.30;;;32.60;46.30;;;;;;4945366;28;20046;-75
2021/06/19 11:43:11;;;;;;;6.43;2.50;;;32.30;46.90;;;;;;4944316;28;20029;-73
2021/06/19 11:45:39;;;;;;;5.43;1.92;;;32.30;47.70;;;;;;4952713;28;20517;-75
2021/06/19 11:48:10;;;;;;;2.88;1.75;;;32.30;47.40;;;;;;4946030;28;20748;-74
2021/06/19 11:50:42;;;;;;;2.45;1.38;;;32.40;46.60;;;;;;4943802;28;20110;-74
2021/06/19 11:53:31;;;;;;;2.25;1.15;;;32.30;45.00;;;;;;4945197;28;20114;-73
2021/06/19 11:56:13;;;;;;;4.00;1.33;;;32.10;45.50;;;;;;4944859;28;20708;-73
2021/06/19 11:59:12;;;;;;;2.78;1.27;;;32.00;46.30;;;;;;4945039;28;20038;-74
2021/06/19 12:01:40;;;;;;;3.97;1.30;;;32.30;45.90;;;;;;4945489;28;20031;-77
2021/06/19 12:04:09;;;;;;;13.20;1.73;;;32.60;43.60;;;;;;4944571;28;20074;-73
2021/06/19 12:06:40;;;;;;;0.90;0.68;;;32.70;43.30;;;;;;4945836;28;20074;-74
2021/06/19 12:09:20;;;;;;;4.00;1.00;;;32.80;44.30;;;;;;4945019;28;20035;-74
2021/06/19 12:11:48;;;;;;;1.45;1.15;;;32.80;44.40;;;;;;4961324;28;20053;-74
2021/06/19 12:14:27;;;;;;;3.53;1.25;;;32.80;44.40;;;;;;4945842;28;20039;-75
2021/06/19 12:16:57;;;;;;;3.05;1.38;;;33.00;45.30;;;;;;4943773;28;20085;-74
2021/06/19 12:19:25;;;;;;;3.03;1.13;;;33.00;45.50;;;;;;4947847;28;20046;-75
2021/06/19 12:21:51;;;;;;;3.85;1.50;;;33.00;46.00;;;;;;4962477;28;20043;-75
2021/06/19 12:24:22;;;;;;;1.48;1.33;;;32.80;45.80;;;;;;4944648;28;20049;-75
2021/06/19 12:27:00;;;;;;;2.85;0.95;;;32.80;45.60;;;;;;4946191;28;20086;-74
2021/06/19 12:29:54;;;;;;;2.38;1.67;;;32.60;45.10;;;;;;4956230;28;20188;-74
2021/06/19 12:32:23;;;;;;;3.42;0.93;;;32.50;45.50;;;;;;4942766;28;20035;-75
2021/06/19 12:34:50;;;;;;;1.88;1.15;;;32.70;45.30;;;;;;4942947;28;20046;-75
2021/06/19 12:37:20;;;;;;;4.03;1.08;;;33.00;45.40;;;;;;4942502;28;20620;-75
2021/06/19 12:39:45;;;;;;;1.67;0.85;;;33.00;45.90;;;;;;4957167;28;20023;-74
2021/06/19 12:42:12;;;;;;;1.67;1.30;;;33.00;44.40;;;;;;4943041;28;20031;-74
2021/06/19 12:44:37;;;;;;;5.70;1.60;;;32.90;44.40;;;;;;4946828;28;20031;-73
2021/06/19 12:47:17;;;;;;;3.35;1.63;;;32.90;44.40;;;;;;4946834;28;20550;-73
2021/06/19 12:49:57;;;;;;;2.33;1.10;;;33.20;43.80;;;;;;4944147;28;20031;-73
2021/06/19 12:52:22;;;;;;;2.05;0.93;;;32.90;44.30;;;;;;4942717;28;20039;-73
2021/06/19 12:55:08;;;;;;;9.35;1.75;;;32.70;44.20;;;;;;4949762;28;20399;-74